Time,TemperatureF,DewpointF,PressureIn,WindDirection,WindDirectionDegrees,WindSpeedMPH,WindSpeedGustMPH,Humidity,HourlyPrecipIn,Conditions,Clouds,dailyrainin,SoftwareType,DateUTC
2013-08-06 00:06:00,51.1,46.4,29.80,SW,225,0.0,1.0,84,0.00,,,0.00,meteohub,2013-08-05 11:06:00,
2013-08-06 00:12:00,51.1,46.8,29.79,SW,225,0.0,1.0,85,0.00,,,0.00,meteohub,2013-08-05 11:12:00,
2013-08-06 00:17:00,51.1,46.8,29.79,SW,225,0.0,1.0,85,0.00,,,0.00,meteohub,2013-08-05 11:17:00,
2013-08-06 00:22:00,51.1,46.8,29.79,SW,225,0.0,1.0,85,0.00,,,0.00,meteohub,2013-08-05 11:22:00,
2013-08-06 00:26:00,50.9,46.6,29.79,SW,225,0.0,1.0,85,0.00,,,0.00,meteohub,2013-08-05 11:26:00,
2013-08-06 00:33:00,50.9,46.6,29.79,West,270,0.0,1.0,85,0.00,,,0.00,meteohub,2013-08-05 11:33:00,
2013-08-06 00:39:00,50.9,46.6,29.79,West,270,0.0,0.0,85,0.00,,,0.00,meteohub,2013-08-05 11:39:00,
2013-08-06 00:45:00,51.3,46.9,29.79,SE,135,0.0,1.0,85,0.00,,,0.00,meteohub,2013-08-05 11:45:00,
2013-08-06 00:51:00,51.4,47.1,29.79,SE,135,0.0,1.0,85,0.00,,,0.00,meteohub,2013-08-05 11:51:00,
2013-08-06 00:57:00,51.6,47.3,29.79,SE,135,0.0,1.0,85,0.00,,,0.00,meteohub,2013-08-05 11:57:00,
2013-08-06 01:05:00,52.0,47.3,29.79,South,180,0.0,1.0,84,0.00,,,0.00,meteohub,2013-08-05 12:05:00,
2013-08-06 01:10:00,52.3,47.3,29.79,SE,135,0.0,1.0,83,0.00,,,0.00,meteohub,2013-08-05 12:10:00,
2013-08-06 01:16:00,52.7,47.7,29.79,West,270,0.0,2.0,83,0.00,,,0.00,meteohub,2013-08-05 12:16:00,
2013-08-06 01:22:00,52.9,47.8,29.79,SW,225,0.0,2.0,83,0.00,,,0.00,meteohub,2013-08-05 12:22:00,
2013-08-06 01:27:00,53.1,48.0,29.79,South,180,1.0,2.0,83,0.00,,,0.00,meteohub,2013-08-05 12:27:00,
2013-08-06 01:32:00,53.4,48.4,29.79,East,90,1.0,2.0,83,0.00,,,0.00,meteohub,2013-08-05 12:32:00,
2013-08-06 01:37:00,53.6,48.2,29.79,NW,315,2.0,2.0,82,0.00,,,0.00,meteohub,2013-08-05 12:37:00,
2013-08-06 01:42:00,53.8,48.4,29.79,SW,225,3.0,3.0,82,0.00,,,0.00,meteohub,2013-08-05 12:42:00,
2013-08-06 01:46:00,54.0,48.2,29.79,South,180,1.0,3.0,81,0.00,,,0.00,meteohub,2013-08-05 12:46:00,
2013-08-06 01:52:00,54.0,48.2,29.79,SE,135,0.0,3.0,81,0.00,,,0.00,meteohub,2013-08-05 12:52:00,
2013-08-06 01:57:00,54.0,48.2,29.79,SW,225,1.0,3.0,81,0.00,,,0.00,meteohub,2013-08-05 12:57:00,
2013-08-06 02:03:00,53.8,48.0,29.80,South,180,1.0,2.0,81,0.00,,,0.00,meteohub,2013-08-05 13:03:00,
2013-08-06 02:09:00,53.6,47.8,29.80,South,180,1.0,2.0,81,0.00,,,0.00,meteohub,2013-08-05 13:09:00,
2013-08-06 02:15:00,53.6,47.8,29.80,South,180,1.0,2.0,81,0.00,,,0.00,meteohub,2013-08-05 13:15:00,
2013-08-06 02:21:00,53.4,48.4,29.80,SW,225,1.0,2.0,83,0.00,,,0.00,meteohub,2013-08-05 13:21:00,
2013-08-06 02:27:00,53.2,48.6,29.80,NNE,23,0.0,2.0,84,0.00,,,0.00,meteohub,2013-08-05 13:27:00,
2013-08-06 02:32:00,53.2,48.6,29.80,South,180,1.0,2.0,84,0.00,,,0.00,meteohub,2013-08-05 13:32:00,
2013-08-06 02:39:00,53.4,48.7,29.80,SW,225,1.0,2.0,84,0.00,,,0.00,meteohub,2013-08-05 13:39:00,
2013-08-06 02:45:00,53.4,48.7,29.80,SW,225,0.0,2.0,84,0.00,,,0.00,meteohub,2013-08-05 13:45:00,
2013-08-06 02:52:00,53.4,48.7,29.80,SE,135,0.0,2.0,84,0.00,,,0.00,meteohub,2013-08-05 13:52:00,
2013-08-06 02:57:00,53.6,48.6,29.80,SW,225,2.0,2.0,83,0.00,,,0.00,meteohub,2013-08-05 13:57:00,
2013-08-06 03:04:00,54.0,48.9,29.81,East,90,1.0,2.0,83,0.00,,,0.00,meteohub,2013-08-05 14:04:00,
2013-08-06 03:10:00,54.3,48.9,29.81,East,90,1.0,2.0,82,0.00,,,0.00,meteohub,2013-08-05 14:10:00,
2013-08-06 03:15:00,54.5,49.1,29.81,SSW,203,2.0,2.0,82,0.00,,,0.00,meteohub,2013-08-05 14:15:00,
2013-08-06 03:22:00,54.5,49.1,29.81,SSW,203,2.0,2.0,82,0.00,,,0.00,meteohub,2013-08-05 14:22:00,
2013-08-06 03:26:00,55.0,49.6,29.81,SW,225,2.0,2.0,82,0.00,,,0.00,meteohub,2013-08-05 14:26:00,
2013-08-06 03:32:00,55.2,49.8,29.81,South,180,2.0,4.0,82,0.00,,,0.00,meteohub,2013-08-05 14:32:00,
2013-08-06 03:37:00,55.6,50.2,29.81,South,180,1.0,4.0,82,0.00,,,0.00,meteohub,2013-08-05 14:37:00,
2013-08-06 03:42:00,55.9,50.5,29.81,NE,45,4.0,4.0,82,0.00,,,0.00,meteohub,2013-08-05 14:42:00,
2013-08-06 03:46:00,56.3,50.5,29.81,SE,135,0.0,4.0,81,0.00,,,0.00,meteohub,2013-08-05 14:46:00,
2013-08-06 03:53:00,56.8,51.1,29.81,South,180,2.0,4.0,81,0.00,,,0.00,meteohub,2013-08-05 14:53:00,
2013-08-06 03:59:00,57.2,50.7,29.81,SW,225,2.0,4.0,79,0.00,,,0.00,meteohub,2013-08-05 14:59:00,
2013-08-06 04:05:00,57.7,50.9,29.81,SW,225,2.0,3.0,78,0.00,,,0.00,meteohub,2013-08-05 15:05:00,
2013-08-06 04:12:00,58.3,51.4,29.81,South,180,2.0,2.0,78,0.00,,,0.00,meteohub,2013-08-05 15:12:00,
2013-08-06 04:17:00,58.6,51.4,29.81,South,180,0.0,2.0,77,0.00,,,0.00,meteohub,2013-08-05 15:17:00,
2013-08-06 04:22:00,59.0,51.4,29.81,SSW,203,2.0,2.0,76,0.00,,,0.00,meteohub,2013-08-05 15:22:00,
2013-08-06 04:27:00,59.4,51.4,29.81,SW,225,2.0,3.0,75,0.00,,,0.00,meteohub,2013-08-05 15:27:00,
2013-08-06 04:32:00,59.9,52.0,29.81,South,180,1.0,3.0,75,0.00,,,0.00,meteohub,2013-08-05 15:32:00,
2013-08-06 04:37:00,60.4,52.5,29.81,South,180,0.0,3.0,75,0.00,,,0.00,meteohub,2013-08-05 15:37:00,
2013-08-06 04:42:00,61.0,52.7,29.81,South,180,4.0,4.0,74,0.00,,,0.00,meteohub,2013-08-05 15:42:00,
2013-08-06 04:48:00,61.7,52.9,29.81,SW,225,0.0,4.0,73,0.00,,,0.00,meteohub,2013-08-05 15:48:00,
2013-08-06 04:54:00,62.2,53.1,29.81,SW,225,2.0,4.0,72,0.00,,,0.00,meteohub,2013-08-05 15:54:00,
2013-08-06 05:01:00,63.0,53.1,29.82,East,90,1.0,2.0,70,0.00,,,0.00,meteohub,2013-08-05 16:01:00,
2013-08-06 05:07:00,63.9,53.4,29.81,South,180,0.0,3.0,69,0.00,,,0.00,meteohub,2013-08-05 16:07:00,
2013-08-06 05:12:00,64.8,54.0,29.82,South,180,2.0,3.0,68,0.00,,,0.00,meteohub,2013-08-05 16:12:00,
2013-08-06 05:20:00,67.1,54.9,29.82,SW,225,2.0,4.0,65,0.00,,,0.00,meteohub,2013-08-05 16:20:00,
2013-08-06 05:27:00,69.1,55.6,29.81,South,180,1.0,4.0,62,0.00,,,0.00,meteohub,2013-08-05 16:27:00,
2013-08-06 05:32:00,70.5,55.6,29.82,South,180,0.0,2.0,59,0.00,,,0.00,meteohub,2013-08-05 16:32:00,
2013-08-06 05:39:00,71.4,54.9,29.81,South,180,0.0,2.0,56,0.00,,,0.00,meteohub,2013-08-05 16:39:00,
2013-08-06 05:45:00,72.7,56.1,29.81,NW,315,1.0,2.0,56,0.00,,,0.00,meteohub,2013-08-05 16:45:00,
2013-08-06 05:51:00,73.9,56.3,29.81,NNE,23,2.0,2.0,54,0.00,,,0.00,meteohub,2013-08-05 16:51:00,
2013-08-06 05:57:00,74.5,55.2,29.81,SE,135,2.0,3.0,51,0.00,,,0.00,meteohub,2013-08-05 16:57:00,
2013-08-06 06:02:00,75.6,56.7,29.81,North,0,2.0,3.0,52,0.00,,,0.00,meteohub,2013-08-05 17:02:00,
2013-08-06 06:07:00,76.5,55.4,29.81,ENE,68,2.0,3.0,48,0.00,,,0.00,meteohub,2013-08-05 17:07:00,
2013-08-06 06:13:00,76.5,54.7,29.81,SE,135,1.0,4.0,47,0.00,,,0.00,meteohub,2013-08-05 17:13:00,
2013-08-06 06:19:00,77.0,54.7,29.81,SE,135,2.0,4.0,46,0.00,,,0.00,meteohub,2013-08-05 17:19:00,
2013-08-06 06:25:00,77.5,57.4,29.81,East,90,1.0,5.0,50,0.00,,,0.00,meteohub,2013-08-05 17:25:00,
2013-08-06 06:32:00,78.6,58.5,29.81,SE,135,1.0,5.0,50,0.00,,,0.00,meteohub,2013-08-05 17:32:00,
2013-08-06 06:37:00,79.3,57.4,29.81,NW,315,1.0,2.0,47,0.00,,,0.00,meteohub,2013-08-05 17:37:00,
2013-08-06 06:43:00,80.6,56.7,29.81,SE,135,1.0,3.0,44,0.00,,,0.00,meteohub,2013-08-05 17:43:00,
2013-08-06 06:50:00,81.0,56.3,29.81,South,180,2.0,2.0,43,0.00,,,0.00,meteohub,2013-08-05 17:50:00,
2013-08-06 06:57:00,80.6,54.7,29.81,North,0,1.0,3.0,41,0.00,,,0.00,meteohub,2013-08-05 17:57:00,
2013-08-06 07:02:00,80.8,54.9,29.81,North,0,3.0,3.0,41,0.00,,,0.00,meteohub,2013-08-05 18:02:00,
2013-08-06 07:09:00,81.1,55.9,29.81,East,90,1.0,4.0,42,0.00,,,0.00,meteohub,2013-08-05 18:09:00,
2013-08-06 07:15:00,81.0,54.3,29.80,ENE,68,4.0,4.0,40,0.00,,,0.00,meteohub,2013-08-05 18:15:00,
2013-08-06 07:21:00,81.0,54.3,29.81,ENE,68,4.0,4.0,40,0.00,,,0.00,meteohub,2013-08-05 18:21:00,
2013-08-06 07:27:00,82.0,55.4,29.81,South,180,2.0,4.0,40,0.00,,,0.00,meteohub,2013-08-05 18:27:00,
2013-08-06 07:32:00,81.9,53.8,29.80,North,0,3.0,4.0,38,0.00,,,0.00,meteohub,2013-08-05 18:32:00,
2013-08-06 07:37:00,81.5,54.1,29.80,NE,45,2.0,4.0,39,0.00,,,0.00,meteohub,2013-08-05 18:37:00,
2013-08-06 07:42:00,82.0,55.4,29.80,NE,45,0.0,4.0,40,0.00,,,0.00,meteohub,2013-08-05 18:42:00,
2013-08-06 07:47:00,82.8,57.4,29.81,East,90,3.0,4.0,42,0.00,,,0.00,meteohub,2013-08-05 18:47:00,
2013-08-06 07:53:00,82.8,55.9,29.80,SE,135,2.0,4.0,40,0.00,,,0.00,meteohub,2013-08-05 18:53:00,
2013-08-06 07:58:00,82.9,56.8,29.80,North,0,2.0,4.0,41,0.00,,,0.00,meteohub,2013-08-05 18:58:00,
2013-08-06 08:04:00,83.5,55.9,29.80,NE,45,2.0,4.0,39,0.00,,,0.00,meteohub,2013-08-05 19:04:00,
2013-08-06 08:10:00,83.8,55.6,29.80,NNW,338,1.0,3.0,38,0.00,,,0.00,meteohub,2013-08-05 19:10:00,
2013-08-06 08:17:00,83.8,58.3,29.80,East,90,1.0,3.0,42,0.00,,,0.00,meteohub,2013-08-05 19:17:00,
2013-08-06 08:22:00,84.0,54.9,29.79,NE,45,4.0,4.0,37,0.00,,,0.00,meteohub,2013-08-05 19:22:00,
2013-08-06 08:27:00,84.0,54.9,29.79,NE,45,4.0,4.0,37,0.00,,,0.00,meteohub,2013-08-05 19:27:00,
2013-08-06 08:35:00,84.6,55.4,29.79,NE,45,1.0,6.0,37,0.00,,,0.00,meteohub,2013-08-05 19:35:00,
2013-08-06 08:41:00,84.7,56.3,29.78,NW,315,1.0,6.0,38,0.00,,,0.00,meteohub,2013-08-05 19:41:00,
2013-08-06 08:47:00,85.1,58.1,29.78,North,0,1.0,4.0,40,0.00,,,0.00,meteohub,2013-08-05 19:47:00,
2013-08-06 08:52:00,84.7,54.9,29.78,NE,45,4.0,4.0,36,0.00,,,0.00,meteohub,2013-08-05 19:52:00,
2013-08-06 08:59:00,84.0,54.1,29.78,SW,225,1.0,4.0,36,0.00,,,0.00,meteohub,2013-08-05 19:59:00,
2013-08-06 09:06:00,84.0,54.1,29.78,SW,225,1.0,6.0,36,0.00,,,0.00,meteohub,2013-08-05 20:06:00,
2013-08-06 09:12:00,83.8,54.9,29.78,NE,45,3.0,6.0,37,0.00,,,0.00,meteohub,2013-08-05 20:12:00,
2013-08-06 09:17:00,83.5,55.9,29.78,East,90,2.0,4.0,39,0.00,,,0.00,meteohub,2013-08-05 20:17:00,
2013-08-06 09:22:00,83.5,55.9,29.78,North,0,1.0,4.0,39,0.00,,,0.00,meteohub,2013-08-05 20:22:00,
2013-08-06 09:27:00,83.5,55.2,29.78,SW,225,2.0,4.0,38,0.00,,,0.00,meteohub,2013-08-05 20:27:00,
2013-08-06 09:33:00,83.1,54.1,29.77,East,90,3.0,4.0,37,0.00,,,0.00,meteohub,2013-08-05 20:33:00,
2013-08-06 09:40:00,82.4,54.3,29.77,NE,45,5.0,5.0,38,0.00,,,0.00,meteohub,2013-08-05 20:40:00,
2013-08-06 09:46:00,82.2,51.8,29.77,NNE,23,7.0,8.0,35,0.00,,,0.00,meteohub,2013-08-05 20:46:00,
2013-08-06 09:52:00,82.2,51.8,29.77,NE,45,4.0,8.0,35,0.00,,,0.00,meteohub,2013-08-05 20:52:00,
2013-08-06 09:57:00,82.2,53.4,29.77,NW,315,2.0,8.0,37,0.00,,,0.00,meteohub,2013-08-05 20:57:00,
2013-08-06 10:02:00,82.2,52.5,29.77,NNE,23,4.0,10.0,36,0.00,,,0.00,meteohub,2013-08-05 21:02:00,
2013-08-06 10:07:00,82.2,52.5,29.77,North,0,4.0,10.0,36,0.00,,,0.00,meteohub,2013-08-05 21:07:00,
2013-08-06 10:12:00,82.6,54.3,29.77,East,90,2.0,10.0,38,0.00,,,0.00,meteohub,2013-08-05 21:12:00,
2013-08-06 10:17:00,82.4,55.6,29.76,NE,45,2.0,10.0,40,0.00,,,0.00,meteohub,2013-08-05 21:17:00,
2013-08-06 10:22:00,82.4,55.6,29.76,North,0,1.0,6.0,40,0.00,,,0.00,meteohub,2013-08-05 21:22:00,
2013-08-06 10:29:00,82.6,52.9,29.75,NW,315,2.0,3.0,36,0.00,,,0.00,meteohub,2013-08-05 21:29:00,
2013-08-06 10:35:00,82.9,53.2,29.75,SE,135,1.0,4.0,36,0.00,,,0.00,meteohub,2013-08-05 21:35:00,
2013-08-06 10:41:00,82.9,53.2,29.75,North,0,4.0,4.0,36,0.00,,,0.00,meteohub,2013-08-05 21:41:00,
2013-08-06 10:47:00,83.1,52.7,29.75,North,0,2.0,5.0,35,0.00,,,0.00,meteohub,2013-08-05 21:47:00,
2013-08-06 10:52:00,83.3,54.3,29.75,NE,45,2.0,5.0,37,0.00,,,0.00,meteohub,2013-08-05 21:52:00,
2013-08-06 10:57:00,83.1,53.4,29.75,NE,45,1.0,5.0,36,0.00,,,0.00,meteohub,2013-08-05 21:57:00,
2013-08-06 11:02:00,83.1,53.4,29.75,East,90,3.0,3.0,36,0.00,,,0.00,meteohub,2013-08-05 22:02:00,
2013-08-06 11:08:00,83.1,53.4,29.75,East,90,3.0,3.0,36,0.00,,,0.00,meteohub,2013-08-05 22:08:00,
2013-08-06 11:15:00,82.4,52.7,29.75,NE,45,1.0,3.0,36,0.00,,,0.00,meteohub,2013-08-05 22:15:00,
2013-08-06 11:21:00,82.4,55.0,29.74,SW,225,2.0,3.0,39,0.00,,,0.00,meteohub,2013-08-05 22:21:00,
2013-08-06 11:27:00,82.9,54.0,29.75,NNE,23,2.0,2.0,37,0.00,,,0.00,meteohub,2013-08-05 22:27:00,
2013-08-06 11:32:00,83.1,54.9,29.74,NE,45,0.0,2.0,38,0.00,,,0.00,meteohub,2013-08-05 22:32:00,
2013-08-06 11:37:00,83.1,55.6,29.74,NW,315,0.0,2.0,39,0.00,,,0.00,meteohub,2013-08-05 22:37:00,
2013-08-06 11:42:00,83.1,55.6,29.74,NW,315,0.0,2.0,39,0.00,,,0.00,meteohub,2013-08-05 22:42:00,
2013-08-06 11:47:00,82.9,52.5,29.74,NW,315,1.0,2.0,35,0.00,,,0.00,meteohub,2013-08-05 22:47:00,
2013-08-06 11:52:00,82.6,52.2,29.74,NE,45,1.0,2.0,35,0.00,,,0.00,meteohub,2013-08-05 22:52:00,
2013-08-06 11:57:00,82.4,52.0,29.73,NE,45,4.0,4.0,35,0.00,,,0.00,meteohub,2013-08-05 22:57:00,
2013-08-06 12:02:00,82.2,49.5,29.73,South,180,1.0,4.0,32,0.00,,,0.00,meteohub,2013-08-05 23:02:00,
2013-08-06 12:07:00,82.0,51.6,29.73,NNE,23,2.0,4.0,35,0.00,,,0.00,meteohub,2013-08-05 23:07:00,
2013-08-06 12:13:00,82.0,48.4,29.73,NW,315,3.0,4.0,31,0.00,,,0.00,meteohub,2013-08-05 23:13:00,
2013-08-06 12:19:00,82.2,49.5,29.73,West,270,0.0,6.0,32,0.00,,,0.00,meteohub,2013-08-05 23:19:00,
2013-08-06 12:25:00,82.2,49.5,29.73,North,0,1.0,6.0,32,0.00,,,0.00,meteohub,2013-08-05 23:25:00,
2013-08-06 12:31:00,82.8,52.3,29.73,North,0,2.0,2.0,35,0.00,,,0.00,meteohub,2013-08-05 23:31:00,
2013-08-06 12:37:00,83.3,47.7,29.73,East,90,6.0,6.0,29,0.00,,,0.00,meteohub,2013-08-05 23:37:00,
2013-08-06 12:42:00,83.5,49.6,29.73,NE,45,2.0,6.0,31,0.00,,,0.00,meteohub,2013-08-05 23:42:00,
2013-08-06 12:47:00,83.8,50.9,29.73,WNW,293,6.0,6.0,32,0.00,,,0.00,meteohub,2013-08-05 23:47:00,
2013-08-06 12:52:00,84.0,50.9,29.73,NW,315,2.0,6.0,32,0.00,,,0.00,meteohub,2013-08-05 23:52:00,
2013-08-06 12:57:00,84.4,46.8,29.72,NE,45,5.0,6.0,27,0.00,,,0.00,meteohub,2013-08-05 23:57:00,
2013-08-06 13:02:00,84.9,48.2,29.73,South,180,2.0,7.0,28,0.00,,,0.00,meteohub,2013-08-06 00:02:00,
2013-08-06 13:08:00,85.1,48.4,29.72,NNW,338,2.0,7.0,28,0.00,,,0.00,meteohub,2013-08-06 00:08:00,
2013-08-06 13:14:00,84.6,47.8,29.73,NE,45,2.0,7.0,28,0.00,,,0.00,meteohub,2013-08-06 00:14:00,
2013-08-06 13:22:00,83.5,46.9,29.72,East,90,1.0,3.0,28,0.00,,,0.00,meteohub,2013-08-06 00:22:00,
2013-08-06 13:27:00,82.9,44.6,29.72,SW,225,2.0,5.0,26,0.00,,,0.00,meteohub,2013-08-06 00:27:00,
2013-08-06 13:33:00,82.4,41.9,29.72,West,270,1.0,5.0,24,0.00,,,0.00,meteohub,2013-08-06 00:33:00,
2013-08-06 13:40:00,82.4,41.9,29.72,NE,45,2.0,5.0,24,0.00,,,0.00,meteohub,2013-08-06 00:40:00,
2013-08-06 13:45:00,82.2,37.2,29.72,North,0,2.0,4.0,20,0.00,,,0.00,meteohub,2013-08-06 00:45:00,
2013-08-06 13:52:00,82.0,38.3,29.72,SW,225,2.0,4.0,21,0.00,,,0.00,meteohub,2013-08-06 00:52:00,
2013-08-06 13:57:00,81.9,38.1,29.72,East,90,2.0,4.0,21,0.00,,,0.00,meteohub,2013-08-06 00:57:00,
2013-08-06 14:02:00,81.7,37.9,29.73,NE,45,2.0,4.0,21,0.00,,,0.00,meteohub,2013-08-06 01:02:00,
2013-08-06 14:07:00,81.5,39.0,29.73,South,180,3.0,3.0,22,0.00,,,0.00,meteohub,2013-08-06 01:07:00,
2013-08-06 14:12:00,81.1,38.7,29.72,NE,45,2.0,3.0,22,0.00,,,0.00,meteohub,2013-08-06 01:12:00,
2013-08-06 14:18:00,81.0,40.8,29.72,North,0,1.0,4.0,24,0.00,,,0.00,meteohub,2013-08-06 01:18:00,
2013-08-06 14:25:00,79.0,42.1,29.72,NW,315,3.0,4.0,27,0.00,,,0.00,meteohub,2013-08-06 01:25:00,
2013-08-06 14:32:00,78.4,44.4,29.73,East,90,2.0,3.0,30,0.00,,,0.00,meteohub,2013-08-06 01:32:00,
2013-08-06 14:37:00,78.6,41.9,29.72,South,180,2.0,6.0,27,0.00,,,0.00,meteohub,2013-08-06 01:37:00,
2013-08-06 14:44:00,78.6,39.9,29.72,East,90,2.0,6.0,25,0.00,,,0.00,meteohub,2013-08-06 01:44:00,
2013-08-06 14:50:00,78.6,41.9,29.72,NW,315,2.0,6.0,27,0.00,,,0.00,meteohub,2013-08-06 01:50:00,
2013-08-06 14:56:00,78.6,39.9,29.73,NNE,23,2.0,4.0,25,0.00,,,0.00,meteohub,2013-08-06 01:56:00,
2013-08-06 15:02:00,78.6,40.8,29.73,NE,45,1.0,8.0,26,0.00,,,0.00,meteohub,2013-08-06 02:02:00,
2013-08-06 15:07:00,78.6,41.9,29.73,West,270,1.0,8.0,27,0.00,,,0.00,meteohub,2013-08-06 02:07:00,
2013-08-06 15:12:00,78.3,40.6,29.73,NE,45,1.0,4.0,26,0.00,,,0.00,meteohub,2013-08-06 02:12:00,
2013-08-06 15:17:00,78.3,41.5,29.73,NW,315,0.0,7.0,27,0.00,,,0.00,meteohub,2013-08-06 02:17:00,
2013-08-06 15:23:00,77.9,43.2,29.73,SW,225,0.0,7.0,29,0.00,,,0.00,meteohub,2013-08-06 02:23:00,
2013-08-06 15:29:00,77.5,43.7,29.74,West,270,3.0,4.0,30,0.00,,,0.00,meteohub,2013-08-06 02:29:00,
2013-08-06 15:35:00,77.2,44.2,29.74,North,0,1.0,3.0,31,0.00,,,0.00,meteohub,2013-08-06 02:35:00,
2013-08-06 15:42:00,76.6,44.6,29.74,East,90,1.0,3.0,32,0.00,,,0.00,meteohub,2013-08-06 02:42:00,
2013-08-06 15:47:00,76.3,45.1,29.74,East,90,2.0,2.0,33,0.00,,,0.00,meteohub,2013-08-06 02:47:00,
2013-08-06 15:52:00,75.9,44.8,29.74,East,90,0.0,2.0,33,0.00,,,0.00,meteohub,2013-08-06 02:52:00,
2013-08-06 16:00:00,75.2,45.0,29.74,NE,45,2.0,2.0,34,0.00,,,0.00,meteohub,2013-08-06 03:00:00,
2013-08-06 16:06:00,74.8,45.3,29.75,WSW,248,0.0,2.0,35,0.00,,,0.00,meteohub,2013-08-06 03:06:00,
2013-08-06 16:12:00,74.3,47.1,29.75,WSW,248,0.0,2.0,38,0.00,,,0.00,meteohub,2013-08-06 03:12:00,
2013-08-06 16:17:00,73.8,49.3,29.75,WSW,248,0.0,2.0,42,0.00,,,0.00,meteohub,2013-08-06 03:17:00,
2013-08-06 16:24:00,72.7,47.7,29.75,SW,225,0.0,0.0,41,0.00,,,0.00,meteohub,2013-08-06 03:24:00,
2013-08-06 16:31:00,71.8,46.8,29.75,SW,225,0.0,0.0,41,0.00,,,0.00,meteohub,2013-08-06 03:31:00,
2013-08-06 16:37:00,70.9,47.3,29.75,SW,225,0.0,0.0,43,0.00,,,0.00,meteohub,2013-08-06 03:37:00,
2013-08-06 16:43:00,70.2,47.3,29.75,SW,225,0.0,0.0,44,0.00,,,0.00,meteohub,2013-08-06 03:43:00,
2013-08-06 16:49:00,69.6,47.8,29.76,SW,225,0.0,0.0,46,0.00,,,0.00,meteohub,2013-08-06 03:49:00,
2013-08-06 16:55:00,69.1,47.5,29.76,SW,225,0.0,0.0,46,0.00,,,0.00,meteohub,2013-08-06 03:55:00,
2013-08-06 17:01:00,68.7,47.1,29.76,SW,225,0.0,0.0,46,0.00,,,0.00,meteohub,2013-08-06 04:01:00,
2013-08-06 17:04:00,68.7,48.2,29.76,SW,225,0.0,0.0,48,0.00,,,0.00,meteohub,2013-08-06 04:04:00,
2013-08-06 17:07:00,68.7,49.3,29.76,SW,225,0.0,0.0,50,0.00,,,0.00,meteohub,2013-08-06 04:07:00,
2013-08-06 17:12:00,68.4,48.9,29.76,SW,225,0.0,0.0,50,0.00,,,0.00,meteohub,2013-08-06 04:12:00,
2013-08-06 17:17:00,67.8,48.6,29.77,SW,225,0.0,0.0,50,0.00,,,0.00,meteohub,2013-08-06 04:17:00,
2013-08-06 17:19:00,67.6,47.8,29.77,SW,225,0.0,0.0,49,0.00,,,0.00,meteohub,2013-08-06 04:19:00,
2013-08-06 17:25:00,67.5,48.2,29.77,SW,225,0.0,0.0,50,0.00,,,0.00,meteohub,2013-08-06 04:25:00,
2013-08-06 17:31:00,67.1,47.3,29.77,SW,225,0.0,0.0,49,0.00,,,0.00,meteohub,2013-08-06 04:31:00,
2013-08-06 17:32:00,67.1,47.3,29.77,SW,225,0.0,0.0,49,0.00,,,0.00,meteohub,2013-08-06 04:32:00,
2013-08-06 17:37:00,67.1,47.3,29.77,SW,225,0.0,0.0,49,0.00,,,0.00,meteohub,2013-08-06 04:37:00,
2013-08-06 17:42:00,66.2,48.0,29.77,SW,225,0.0,0.0,52,0.00,,,0.00,meteohub,2013-08-06 04:42:00,
2013-08-06 17:47:00,65.8,49.3,29.77,SW,225,0.0,0.0,55,0.00,,,0.00,meteohub,2013-08-06 04:47:00,
2013-08-06 17:52:00,65.3,49.3,29.77,SW,225,0.0,0.0,56,0.00,,,0.00,meteohub,2013-08-06 04:52:00,
2013-08-06 17:57:00,64.9,48.4,29.77,SW,225,0.0,0.0,55,0.00,,,0.00,meteohub,2013-08-06 04:57:00,
2013-08-06 18:02:00,64.6,48.0,29.77,SW,225,0.0,0.0,55,0.00,,,0.00,meteohub,2013-08-06 05:02:00,
2013-08-06 18:07:00,64.2,47.3,29.77,SW,225,0.0,0.0,54,0.00,,,0.00,meteohub,2013-08-06 05:07:00,
2013-08-06 18:12:00,64.0,47.5,29.77,SW,225,0.0,0.0,55,0.00,,,0.00,meteohub,2013-08-06 05:12:00,
2013-08-06 18:17:00,63.9,48.7,29.78,SW,225,0.0,0.0,58,0.00,,,0.00,meteohub,2013-08-06 05:17:00,
2013-08-06 18:22:00,63.3,48.7,29.78,SW,225,0.0,0.0,59,0.00,,,0.00,meteohub,2013-08-06 05:22:00,
2013-08-06 18:27:00,62.8,48.2,29.78,SW,225,0.0,1.0,59,0.00,,,0.00,meteohub,2013-08-06 05:27:00,
2013-08-06 18:32:00,62.4,48.7,29.78,SW,225,0.0,1.0,61,0.00,,,0.00,meteohub,2013-08-06 05:32:00,
2013-08-06 18:37:00,62.1,48.4,29.78,SW,225,0.0,1.0,61,0.00,,,0.00,meteohub,2013-08-06 05:37:00,
2013-08-06 18:42:00,61.9,48.2,29.78,SW,225,0.0,0.0,61,0.00,,,0.00,meteohub,2013-08-06 05:42:00,
2013-08-06 18:47:00,61.5,48.0,29.78,SW,225,0.0,0.0,61,0.00,,,0.00,meteohub,2013-08-06 05:47:00,
2013-08-06 18:52:00,61.3,48.2,29.78,SW,225,0.0,0.0,62,0.00,,,0.00,meteohub,2013-08-06 05:52:00,
2013-08-06 18:57:00,61.0,48.4,29.78,SW,225,0.0,0.0,63,0.00,,,0.00,meteohub,2013-08-06 05:57:00,
2013-08-06 19:02:00,60.8,48.2,29.78,SW,225,0.0,0.0,63,0.00,,,0.00,meteohub,2013-08-06 06:02:00,
2013-08-06 19:07:00,60.8,48.2,29.78,SW,225,0.0,0.0,63,0.00,,,0.00,meteohub,2013-08-06 06:07:00,
2013-08-06 19:12:00,60.3,48.4,29.78,SW,225,0.0,0.0,65,0.00,,,0.00,meteohub,2013-08-06 06:12:00,
2013-08-06 19:17:00,59.9,48.6,29.78,SW,225,0.0,0.0,66,0.00,,,0.00,meteohub,2013-08-06 06:17:00,
2013-08-06 19:22:00,59.7,47.5,29.78,SW,225,0.0,0.0,64,0.00,,,0.00,meteohub,2013-08-06 06:22:00,
2013-08-06 19:27:00,59.4,48.0,29.78,SW,225,0.0,0.0,66,0.00,,,0.00,meteohub,2013-08-06 06:27:00,
2013-08-06 19:32:00,59.0,47.7,29.78,SW,225,0.0,0.0,66,0.00,,,0.00,meteohub,2013-08-06 06:32:00,
2013-08-06 19:37:00,58.6,48.6,29.78,SW,225,0.0,0.0,69,0.00,,,0.00,meteohub,2013-08-06 06:37:00,
2013-08-06 19:42:00,58.5,48.4,29.78,SW,225,0.0,1.0,69,0.00,,,0.00,meteohub,2013-08-06 06:42:00,
2013-08-06 19:47:00,58.1,48.4,29.78,SW,225,0.0,1.0,70,0.00,,,0.00,meteohub,2013-08-06 06:47:00,
2013-08-06 19:52:00,57.7,48.4,29.78,SW,225,0.0,1.0,71,0.00,,,0.00,meteohub,2013-08-06 06:52:00,
2013-08-06 19:57:00,57.4,48.0,29.78,SW,225,0.0,0.0,71,0.00,,,0.00,meteohub,2013-08-06 06:57:00,
2013-08-06 20:02:00,57.0,48.0,29.78,SW,225,0.0,0.0,72,0.00,,,0.00,meteohub,2013-08-06 07:02:00,
2013-08-06 20:07:00,56.7,47.7,29.78,SW,225,0.0,0.0,72,0.00,,,0.00,meteohub,2013-08-06 07:07:00,
2013-08-06 20:12:00,56.5,47.5,29.79,SW,225,0.0,0.0,72,0.00,,,0.00,meteohub,2013-08-06 07:12:00,
2013-08-06 20:17:00,56.3,47.5,29.79,SW,225,0.0,0.0,72,0.00,,,0.00,meteohub,2013-08-06 07:17:00,
2013-08-06 20:22:00,55.9,47.1,29.79,SW,225,0.0,0.0,72,0.00,,,0.00,meteohub,2013-08-06 07:22:00,
2013-08-06 20:27:00,55.8,46.9,29.79,SW,225,0.0,0.0,72,0.00,,,0.00,meteohub,2013-08-06 07:27:00,
2013-08-06 20:32:00,55.6,46.8,29.79,SW,225,0.0,1.0,72,0.00,,,0.00,meteohub,2013-08-06 07:32:00,
2013-08-06 20:37:00,55.4,46.9,29.79,SW,225,0.0,1.0,73,0.00,,,0.00,meteohub,2013-08-06 07:37:00,
2013-08-06 20:42:00,55.2,46.8,29.79,SW,225,1.0,0.0,73,0.00,,,0.00,meteohub,2013-08-06 07:42:00,
2013-08-06 20:47:00,54.9,46.4,29.79,SW,225,0.0,1.0,73,0.00,,,0.00,meteohub,2013-08-06 07:47:00,
2013-08-06 20:52:00,54.7,46.6,29.79,SW,225,0.0,1.0,74,0.00,,,0.00,meteohub,2013-08-06 07:52:00,
2013-08-06 20:57:00,54.5,46.4,29.79,SW,225,0.0,1.0,74,0.00,,,0.00,meteohub,2013-08-06 07:57:00,
2013-08-06 21:02:00,54.5,46.4,29.79,SW,225,0.0,0.0,74,0.00,,,0.00,meteohub,2013-08-06 08:02:00,
2013-08-06 21:07:00,54.5,46.4,29.79,SW,225,0.0,0.0,74,0.00,,,0.00,meteohub,2013-08-06 08:07:00,
2013-08-06 21:12:00,54.1,46.4,29.79,SW,225,0.0,0.0,75,0.00,,,0.00,meteohub,2013-08-06 08:12:00,
2013-08-06 21:17:00,54.0,46.6,29.79,SW,225,0.0,0.0,76,0.00,,,0.00,meteohub,2013-08-06 08:17:00,
2013-08-06 21:22:00,53.6,46.2,29.79,SW,225,0.0,0.0,76,0.00,,,0.00,meteohub,2013-08-06 08:22:00,
2013-08-06 21:27:00,53.4,46.8,29.79,SW,225,0.0,0.0,78,0.00,,,0.00,meteohub,2013-08-06 08:27:00,
2013-08-06 21:32:00,53.2,46.2,29.79,SW,225,0.0,0.0,77,0.00,,,0.00,meteohub,2013-08-06 08:32:00,
2013-08-06 21:37:00,53.1,46.0,29.79,SW,225,0.0,0.0,77,0.00,,,0.00,meteohub,2013-08-06 08:37:00,
2013-08-06 21:42:00,52.9,46.2,29.79,SW,225,0.0,0.0,78,0.00,,,0.00,meteohub,2013-08-06 08:42:00,
2013-08-06 21:47:00,52.7,46.4,29.79,SW,225,0.0,0.0,79,0.00,,,0.00,meteohub,2013-08-06 08:47:00,
2013-08-06 21:52:00,52.5,46.2,29.79,SW,225,1.0,0.0,79,0.00,,,0.00,meteohub,2013-08-06 08:52:00,
2013-08-06 21:57:00,52.5,46.2,29.79,SW,225,0.0,1.0,79,0.00,,,0.00,meteohub,2013-08-06 08:57:00,
2013-08-06 22:02:00,52.5,46.2,29.79,SW,225,0.0,1.0,79,0.00,,,0.00,meteohub,2013-08-06 09:02:00,
2013-08-06 22:07:00,52.5,46.2,29.79,SW,225,0.0,1.0,79,0.00,,,0.00,meteohub,2013-08-06 09:07:00,
2013-08-06 22:12:00,52.3,46.0,29.79,SW,225,0.0,1.0,79,0.00,,,0.00,meteohub,2013-08-06 09:12:00,
2013-08-06 22:17:00,52.3,46.0,29.79,SE,135,0.0,1.0,79,0.00,,,0.00,meteohub,2013-08-06 09:17:00,
2013-08-06 22:22:00,52.3,46.4,29.79,SE,135,0.0,1.0,80,0.00,,,0.00,meteohub,2013-08-06 09:22:00,
2013-08-06 22:27:00,52.2,46.2,29.79,SE,135,0.0,1.0,80,0.00,,,0.00,meteohub,2013-08-06 09:27:00,
2013-08-06 22:32:00,52.2,46.2,29.79,SE,135,0.0,1.0,80,0.00,,,0.00,meteohub,2013-08-06 09:32:00,
2013-08-06 22:37:00,52.2,46.2,29.79,SE,135,0.0,0.0,80,0.00,,,0.00,meteohub,2013-08-06 09:37:00,
2013-08-06 22:42:00,52.0,46.0,29.79,SE,135,0.0,0.0,80,0.00,,,0.00,meteohub,2013-08-06 09:42:00,
2013-08-06 22:47:00,52.0,46.0,29.79,NW,315,0.0,0.0,80,0.00,,,0.00,meteohub,2013-08-06 09:47:00,
2013-08-06 22:52:00,51.8,45.9,29.79,West,270,0.0,0.0,80,0.00,,,0.00,meteohub,2013-08-06 09:52:00,
2013-08-06 22:57:00,51.8,45.9,29.79,West,270,0.0,0.0,80,0.00,,,0.00,meteohub,2013-08-06 09:57:00,
2013-08-06 23:02:00,51.8,45.9,29.79,SW,225,0.0,0.0,80,0.00,,,0.00,meteohub,2013-08-06 10:02:00,
2013-08-06 23:07:00,51.8,45.9,29.79,SW,225,0.0,0.0,80,0.00,,,0.00,meteohub,2013-08-06 10:07:00,
2013-08-06 23:12:00,51.8,46.2,29.79,SW,225,0.0,0.0,81,0.00,,,0.00,meteohub,2013-08-06 10:12:00,
2013-08-06 23:17:00,51.6,46.2,29.79,SW,225,0.0,0.0,82,0.00,,,0.00,meteohub,2013-08-06 10:17:00,
2013-08-06 23:22:00,51.6,46.2,29.79,SW,225,0.0,0.0,82,0.00,,,0.00,meteohub,2013-08-06 10:22:00,
2013-08-06 23:27:00,51.4,46.2,29.79,SW,225,0.0,0.0,82,0.00,,,0.00,meteohub,2013-08-06 10:27:00,
2013-08-06 23:32:00,51.4,46.4,29.79,SW,225,0.0,1.0,83,0.00,,,0.00,meteohub,2013-08-06 10:32:00,
2013-08-06 23:37:00,51.6,46.6,29.79,SW,225,0.0,1.0,83,0.00,,,0.00,meteohub,2013-08-06 10:37:00,
2013-08-06 23:42:00,51.6,46.6,29.78,SW,225,0.0,1.0,83,0.00,,,0.00,meteohub,2013-08-06 10:42:00,
2013-08-06 23:47:00,51.6,46.6,29.79,SW,225,0.0,1.0,83,0.00,,,0.00,meteohub,2013-08-06 10:47:00,
2013-08-06 23:52:00,51.8,46.4,29.80,SW,225,0.0,1.0,82,0.00,,,0.00,meteohub,2013-08-06 10:52:00,
2013-08-06 23:57:00,51.8,46.4,29.79,SW,225,0.0,0.0,82,0.00,,,0.00,meteohub,2013-08-06 10:57:00,